NCAR-RAP Real-Time Weather Data

Output produced by METARs form (12 August 2020  18:19 UTC)
found at http://weather.rap.ucar.edu/surface/
 
K8D3 121756Z AUTO 13013KT 22/19 A2992 RMK AO1 SLP119 T02220189 10228 20178 58000
K8D3 121656Z AUTO 12011KT 23/19 A2992 RMK AO1 SLP119 T02280189
K8D3 121556Z AUTO 19007KT 21/18 A2992 RMK AO1 SLP121 T02060178
K8D3 121456Z AUTO 22008KT 19/17 A2992 RMK AO1 SLP121 T01890172 53029
K8D3 121356Z AUTO 17009G15KT 18/17 A2991 RMK AO1 SLP116 T01830167
K8D3 121256Z AUTO VRB06G25KT 18/17 A2981 RMK AO1 PK WND 11028/1246 PRESRR SLP080 T01780167
K8D3 121156Z AUTO 11012KT 18/17 A2983 RMK AO1 SLP085 P0001 60010 70010 T01780167 10211 20161 58020
K8D3 121056Z AUTO 00000KT 19/17 A2992 RMK AO1 SLP113 P0009 T01890167
K8D3 120956Z AUTO 27012G27KT 21/14 A2995 RMK AO1 PK WND 24027/0947 SLP124 T02110144
K8D3 120856Z AUTO 17006KT 17/16 A2989 RMK AO1 SLP108 T01670156 58003
K8D3 120756Z AUTO 16006KT 16/15 A2991 RMK AO1 SLP115 T01610150
K8D3 120656Z AUTO 16005KT 16/14 A2992 RMK AO1 SLP117 T01610144
K8D3 120556Z AUTO 13006KT 17/15 A2991 RMK AO1 SLP110 T01720150 10267 20167 402720128 50001
K8D3 120456Z AUTO 15005KT 18/14 A2991 RMK AO1 SLP113 T01780144
K8D3 120356Z AUTO 19006KT 18/14 A2993 RMK AO1 SLP118 T01830144
K8D3 120256Z AUTO 18008KT 19/16 A2990 RMK AO1 SLP109 T01890161 53012
K8D3 120156Z AUTO 16005KT 20/16 A2988 RMK AO1 SLP103 T02000161
K8D3 120056Z AUTO 15006KT 24/16 A2988 RMK AO1 SLP099 T02440161
K8D3 112356Z AUTO 15009KT 27/15 A2987 RMK AO1 SLP095 T02670150 10272 20244 56007
K8D3 112256Z AUTO 14009KT 27/13 A2987 RMK AO1 SLP095 T02670133
K8D3 112156Z AUTO 13009KT 27/13 A2987 RMK AO1 SLP097 T02720133